createdAt,value
2022-12-29T00:00:18.027Z,101861.22
2022-12-29T00:02:44.824Z,101853.06
2022-12-29T00:05:11.490Z,101851.66
2022-12-29T00:07:38.320Z,101853.31
2022-12-29T00:10:05.223Z,101847.34
2022-12-29T00:12:51.768Z,101842.38
2022-12-29T00:15:37.210Z,101852.19
2022-12-29T00:18:03.950Z,101846.81
2022-12-29T00:20:49.137Z,101836.31
2022-12-29T00:23:34.389Z,101838.81
2022-12-29T00:26:22.128Z,101833.41
2022-12-29T00:29:07.394Z,101829.63
2022-12-29T00:31:52.828Z,101818.31
2022-12-29T00:34:38.037Z,101817.78
2022-12-29T00:37:04.714Z,101823.78
2022-12-29T00:39:49.743Z,101821.44
2022-12-29T00:42:39.604Z,101823.97
2022-12-29T00:45:07.106Z,101821.78
2022-12-29T00:47:33.827Z,101816.13
2022-12-29T00:50:00.869Z,101814.81
2022-12-29T00:52:27.851Z,101813.81
2022-12-29T00:54:54.689Z,101800.31
2022-12-29T00:57:21.409Z,101800.09
2022-12-29T00:59:48.133Z,101800.66
2022-12-29T01:02:16.494Z,101789.81
2022-12-29T01:04:43.513Z,101794.97
2022-12-29T01:07:10.085Z,101786.81
2022-12-29T01:09:56.204Z,101787.50
2022-12-29T01:12:41.540Z,101795.31
2022-12-29T01:15:11.297Z,101797.47
2022-12-29T01:17:38.082Z,101789.09
2022-12-29T01:20:05.130Z,101796.91
2022-12-29T01:22:31.934Z,101800.09
2022-12-29T01:24:58.729Z,101800.63
2022-12-29T01:27:25.393Z,101806.75
2022-12-29T01:29:52.000Z,101798.72
2022-12-29T01:32:18.734Z,101801.72
2022-12-29T01:34:45.448Z,101809.50
2022-12-29T01:37:12.631Z,101804.66
2022-12-29T01:39:39.399Z,101794.22
2022-12-29T01:42:17.293Z,101798.72
2022-12-29T01:45:04.586Z,101791.72
2022-12-29T01:47:39.848Z,101805.69
2022-12-29T01:50:10.734Z,101802.97
2022-12-29T01:52:39.648Z,101810.41
2022-12-29T01:55:06.838Z,101813.09
2022-12-29T01:57:35.572Z,101812.91
2022-12-29T02:00:06.690Z,101802.53
2022-12-29T02:02:39.958Z,101803.25
2022-12-29T02:05:11.538Z,101797.22
2022-12-29T02:07:38.726Z,101799.22
2022-12-29T02:10:05.833Z,101794.94
2022-12-29T02:12:32.527Z,101796.50
2022-12-29T02:15:01.313Z,101800.16
2022-12-29T02:17:34.547Z,101799.44
2022-12-29T02:20:21.501Z,101803.41
2022-12-29T02:22:54.282Z,101804.31
2022-12-29T02:25:30.221Z,101798.53
2022-12-29T02:28:03.590Z,101789.66
2022-12-29T02:30:35.266Z,101797.69
2022-12-29T02:33:10.686Z,101790.63
2022-12-29T02:35:42.879Z,101791.75
2022-12-29T02:38:20.207Z,101795.06
2022-12-29T02:41:14.158Z,101793.22
2022-12-29T02:43:48.435Z,101788.19
2022-12-29T02:46:28.818Z,101790.13
2022-12-29T02:49:15.125Z,101789.03
2022-12-29T02:51:49.410Z,101783.88
2022-12-29T02:54:38.227Z,101783.63
2022-12-29T02:57:30.015Z,101775.63
2022-12-29T02:59:56.835Z,101777.16
2022-12-29T03:02:26.494Z,101768.84
2022-12-29T03:04:59.521Z,101768.19
2022-12-29T03:07:32.145Z,101775.69
2022-12-29T03:10:01.490Z,101766.72
2022-12-29T03:13:07.076Z,101767.31
2022-12-29T03:16:02.477Z,101759.34
2022-12-29T03:18:32.256Z,101760.09
2022-12-29T03:21:01.514Z,101757.59
2022-12-29T03:23:29.581Z,101759.38
2022-12-29T03:25:59.564Z,101755.97
2022-12-29T03:28:32.990Z,101759.44
2022-12-29T03:31:00.909Z,101759.44
2022-12-29T03:33:29.876Z,101749.78
2022-12-29T03:36:01.385Z,101746.28
2022-12-29T03:38:39.041Z,101743.16
2022-12-29T03:41:08.383Z,101741.50
2022-12-29T03:43:35.497Z,101741.50
2022-12-29T03:46:02.208Z,101744.28
2022-12-29T03:48:28.989Z,101735.81
2022-12-29T03:50:56.619Z,101736.47
2022-12-29T03:53:23.545Z,101738.78
2022-12-29T03:55:50.534Z,101738.91
2022-12-29T03:58:17.164Z,101742.75
2022-12-29T04:01:06.367Z,101741.75
2022-12-29T04:03:36.419Z,101739.78
2022-12-29T04:06:03.289Z,101738.91
2022-12-29T04:08:36.356Z,101747.59
2022-12-29T04:11:03.023Z,101746.06
2022-12-29T04:13:29.777Z,101748.75
2022-12-29T04:15:56.456Z,101747.31
2022-12-29T04:18:23.085Z,101740.84
2022-12-29T04:21:01.961Z,101739.09
2022-12-29T04:23:30.466Z,101738.66
2022-12-29T04:25:57.266Z,101729.31
2022-12-29T04:28:25.230Z,101735.16
2022-12-29T04:31:08.650Z,101738.34
2022-12-29T04:33:38.806Z,101743.69
2022-12-29T04:36:07.544Z,101739.66
2022-12-29T04:38:35.718Z,101732.97
2022-12-29T04:41:04.367Z,101737.16
2022-12-29T04:43:31.504Z,101731.13
2022-12-29T04:46:16.694Z,101726.28
2022-12-29T04:48:56.087Z,101726.94
2022-12-29T04:51:46.942Z,101720.59
2022-12-29T04:54:15.244Z,101729.56
2022-12-29T04:56:44.122Z,101730.78
2022-12-29T04:59:12.585Z,101735.41
2022-12-29T05:01:39.426Z,101732.91
2022-12-29T05:04:06.057Z,101732.75
2022-12-29T05:06:32.680Z,101734.25
2022-12-29T05:08:59.438Z,101738.22
2022-12-29T05:11:26.186Z,101733.13
2022-12-29T05:13:54.561Z,101737.00
2022-12-29T05:16:22.030Z,101734.91
2022-12-29T05:18:48.665Z,101735.72
2022-12-29T05:21:15.473Z,101737.56
2022-12-29T05:23:43.737Z,101736.38
2022-12-29T05:26:10.429Z,101741.94
2022-12-29T05:28:54.215Z,101732.44
2022-12-29T05:31:20.932Z,101739.81
2022-12-29T05:33:48.490Z,101738.28
2022-12-29T05:36:15.250Z,101736.16
2022-12-29T05:38:48.837Z,101738.50
2022-12-29T05:41:15.526Z,101735.63
2022-12-29T05:43:47.706Z,101735.31
2022-12-29T05:46:29.517Z,101733.50
2022-12-29T05:49:10.073Z,101734.16
2022-12-29T05:51:55.074Z,101739.34
2022-12-29T05:54:22.477Z,101741.84
2022-12-29T05:56:49.202Z,101736.66
2022-12-29T05:59:16.076Z,101745.50
2022-12-29T06:01:42.928Z,101747.47
2022-12-29T06:04:09.727Z,101751.81
2022-12-29T06:06:36.540Z,101753.13
2022-12-29T06:09:04.013Z,101756.53
2022-12-29T06:11:31.509Z,101749.19
2022-12-29T06:13:59.701Z,101754.41
2022-12-29T06:16:26.356Z,101761.41
2022-12-29T06:18:57.291Z,101766.59
2022-12-29T06:21:23.975Z,101773.56
2022-12-29T06:23:50.573Z,101768.44
2022-12-29T06:26:17.362Z,101768.38
2022-12-29T06:28:45.360Z,101772.47
2022-12-29T06:31:12.257Z,101764.66
2022-12-29T06:33:39.511Z,101762.97
2022-12-29T06:36:06.679Z,101768.13
2022-12-29T06:38:33.890Z,101762.81
2022-12-29T06:41:00.588Z,101753.19
2022-12-29T06:43:45.574Z,101763.44
2022-12-29T06:46:21.160Z,101761.47
2022-12-29T06:48:47.967Z,101769.97
2022-12-29T06:51:14.540Z,101764.34
2022-12-29T06:53:41.417Z,101767.16
2022-12-29T06:56:08.191Z,101768.66
2022-12-29T06:58:34.749Z,101758.03
2022-12-29T07:01:01.409Z,101755.69
2022-12-29T07:03:28.026Z,101757.66
2022-12-29T07:05:55.472Z,101755.69
2022-12-29T07:08:22.148Z,101753.28
2022-12-29T07:10:48.751Z,101757.47
2022-12-29T07:13:15.575Z,101755.31
2022-12-29T07:15:42.484Z,101756.47
2022-12-29T07:18:09.134Z,101766.34
2022-12-29T07:20:35.765Z,101765.38
2022-12-29T07:23:03.301Z,101768.69
2022-12-29T07:25:30.528Z,101759.88
2022-12-29T07:27:57.169Z,101762.16
2022-12-29T07:30:23.736Z,101765.56
2022-12-29T07:32:50.332Z,101758.53
2022-12-29T07:35:16.950Z,101774.41
2022-12-29T07:37:44.369Z,101765.88
2022-12-29T07:40:11.664Z,101782.16
2022-12-29T07:42:38.243Z,101783.53
2022-12-29T07:45:08.583Z,101779.72
2022-12-29T07:48:08.715Z,101778.66
2022-12-29T07:50:35.714Z,101785.53
2022-12-29T07:53:02.506Z,101795.03
2022-12-29T07:55:29.220Z,101796.03
2022-12-29T07:57:56.212Z,101807.69
2022-12-29T08:00:23.065Z,101811.41
2022-12-29T08:02:51.885Z,101802.78
2022-12-29T08:05:18.550Z,101810.84
2022-12-29T08:07:45.593Z,101804.84
2022-12-29T08:10:12.503Z,101803.06
2022-12-29T08:12:39.698Z,101801.44
2022-12-29T08:15:06.727Z,101800.41
2022-12-29T08:17:33.627Z,101804.00
2022-12-29T08:20:00.191Z,101810.75
2022-12-29T08:22:26.808Z,101814.22
2022-12-29T08:24:53.499Z,101814.78
2022-12-29T08:27:21.246Z,101822.47
2022-12-29T08:29:48.269Z,101819.28
2022-12-29T08:32:14.923Z,101813.47
2022-12-29T08:34:41.520Z,101816.66
2022-12-29T08:37:08.136Z,101827.69
2022-12-29T08:39:35.307Z,101825.25
2022-12-29T08:42:01.912Z,101830.88
2022-12-29T08:44:28.466Z,101836.78
2022-12-29T08:46:55.091Z,101834.16
2022-12-29T08:49:21.734Z,101833.81
2022-12-29T08:51:48.336Z,101839.84
2022-12-29T08:54:14.941Z,101833.66
2022-12-29T08:56:41.684Z,101831.31
2022-12-29T08:59:09.028Z,101834.50
2022-12-29T09:01:37.599Z,101835.50
2022-12-29T09:04:14.701Z,101838.22
2022-12-29T09:06:41.928Z,101838.22
2022-12-29T09:09:08.587Z,101847.09
2022-12-29T09:11:35.278Z,101848.44
2022-12-29T09:14:01.870Z,101850.31
2022-12-29T09:16:28.580Z,101852.34
2022-12-29T09:18:55.267Z,101841.34
2022-12-29T09:21:22.084Z,101848.03
2022-12-29T09:23:49.968Z,101845.72
2022-12-29T09:26:17.866Z,101843.41
2022-12-29T09:28:46.116Z,101847.75
2022-12-29T09:31:13.196Z,101848.09
2022-12-29T09:33:40.161Z,101851.41
2022-12-29T09:36:06.983Z,101846.94
2022-12-29T09:38:33.595Z,101849.25
2022-12-29T09:41:08.133Z,101854.75
2022-12-29T09:43:37.507Z,101847.91
2022-12-29T09:46:22.533Z,101848.44
2022-12-29T09:48:52.039Z,101848.78
2022-12-29T09:51:22.379Z,101853.44
2022-12-29T09:53:54.570Z,101856.09
2022-12-29T09:56:22.658Z,101847.44
2022-12-29T09:59:15.107Z,101856.47
2022-12-29T10:01:41.913Z,101842.44
2022-12-29T10:04:08.916Z,101850.16
2022-12-29T10:06:50.168Z,101841.47
2022-12-29T10:09:24.923Z,101823.13
2022-12-29T10:12:04.185Z,101813.59
2022-12-29T10:14:33.790Z,101820.78
2022-12-29T10:17:20.539Z,101812.09
2022-12-29T10:19:53.172Z,101804.03
2022-12-29T10:22:44.224Z,101806.66
2022-12-29T10:25:17.884Z,101799.75
2022-12-29T10:27:44.947Z,101801.53
2022-12-29T10:30:13.545Z,101801.16
2022-12-29T10:32:52.871Z,101792.81
2022-12-29T10:35:23.742Z,101791.59
2022-12-29T10:37:57.658Z,101788.19
2022-12-29T10:40:27.554Z,101782.41
2022-12-29T10:42:55.569Z,101781.88
2022-12-29T10:45:24.263Z,101776.50
2022-12-29T10:47:56.840Z,101782.91
2022-12-29T10:50:24.210Z,101774.56
2022-12-29T10:52:51.097Z,101769.41
2022-12-29T10:55:24.118Z,101758.72
2022-12-29T10:57:50.861Z,101759.94
2022-12-29T11:00:21.369Z,101751.28
2022-12-29T11:02:51.249Z,101766.34
2022-12-29T11:05:25.224Z,101759.34
2022-12-29T11:07:54.489Z,101754.53
2022-12-29T11:10:43.781Z,101751.41
2022-12-29T11:13:26.429Z,101750.16
2022-12-29T11:15:53.286Z,101742.28
2022-12-29T11:18:21.857Z,101731.06
2022-12-29T11:20:49.267Z,101734.91
2022-12-29T11:23:23.790Z,101722.72
2022-12-29T11:26:10.761Z,101717.69
2022-12-29T11:28:38.965Z,101707.50
2022-12-29T11:31:06.737Z,101701.13
2022-12-29T11:33:34.722Z,101704.50
2022-12-29T11:36:16.701Z,101704.78
2022-12-29T11:38:47.088Z,101703.41
2022-12-29T11:41:19.738Z,101700.66
2022-12-29T11:43:48.608Z,101696.19
2022-12-29T11:46:21.130Z,101704.28
2022-12-29T11:48:48.880Z,101693.53
2022-12-29T11:51:25.261Z,101694.13
2022-12-29T11:53:54.453Z,101694.94
2022-12-29T11:56:35.384Z,101696.00
2022-12-29T11:59:23.945Z,101688.16
2022-12-29T12:01:50.676Z,101686.97
2022-12-29T12:04:19.623Z,101679.56
2022-12-29T12:06:55.288Z,101673.75
2022-12-29T12:09:28.511Z,101672.53
2022-12-29T12:11:56.128Z,101665.97
2022-12-29T12:14:24.879Z,101656.63
2022-12-29T12:17:39.438Z,101641.41
2022-12-29T12:20:18.911Z,101649.25
2022-12-29T12:23:00.869Z,101641.41
2022-12-29T12:25:32.430Z,101647.84
2022-12-29T12:28:09.602Z,101641.81
2022-12-29T12:30:46.514Z,101645.78
2022-12-29T12:33:31.975Z,101647.25
2022-12-29T12:35:59.287Z,101639.34
2022-12-29T12:38:28.759Z,101638.94
2022-12-29T12:41:18.080Z,101637.31
2022-12-29T12:43:52.779Z,101623.66
2022-12-29T12:46:34.525Z,101620.59
2022-12-29T12:49:10.126Z,101611.72
2022-12-29T12:51:45.676Z,101600.09
2022-12-29T12:54:21.652Z,101606.69
2022-12-29T12:57:17.469Z,101601.72
2022-12-29T12:59:44.021Z,101608.13
2022-12-29T13:02:22.739Z,101597.88
2022-12-29T13:04:58.499Z,101596.63
2022-12-29T13:07:52.025Z,101585.06
2022-12-29T13:10:40.853Z,101585.28
2022-12-29T13:13:27.026Z,101587.97
2022-12-29T13:16:15.262Z,101584.06
2022-12-29T13:18:48.814Z,101574.53
2022-12-29T13:21:24.467Z,101574.75
2022-12-29T13:23:51.084Z,101564.38
2022-12-29T13:26:38.296Z,101564.38
2022-12-29T13:29:14.735Z,101566.03
2022-12-29T13:31:44.142Z,101567.69
2022-12-29T13:34:13.495Z,101563.94
2022-12-29T13:36:45.166Z,101568.50
2022-12-29T13:39:20.917Z,101567.06
2022-12-29T13:41:52.650Z,101560.63
2022-12-29T13:44:23.316Z,101564.56
2022-12-29T13:46:50.362Z,101570.75
2022-12-29T13:49:16.910Z,101565.81
2022-12-29T13:51:51.170Z,101562.50
2022-12-29T13:54:40.508Z,101555.41
2022-12-29T13:57:27.835Z,101551.53
2022-12-29T13:59:57.791Z,101546.16
2022-12-29T14:02:43.395Z,101536.22
2022-12-29T14:05:19.018Z,101535.34
2022-12-29T14:07:45.798Z,101537.00
2022-12-29T14:10:30.991Z,101535.97
2022-12-29T14:13:08.459Z,101534.94
2022-12-29T14:15:42.091Z,101538.84
2022-12-29T14:18:22.610Z,101538.22
2022-12-29T14:20:52.143Z,101531.16
2022-12-29T14:23:28.471Z,101537.81
2022-12-29T14:25:58.187Z,101542.75
2022-12-29T14:28:31.641Z,101549.34
2022-12-29T14:30:59.113Z,101546.47
2022-12-29T14:33:27.664Z,101542.94
2022-12-29T14:35:55.153Z,101549.50
2022-12-29T14:38:29.247Z,101552.22
2022-12-29T14:41:20.534Z,101544.78
2022-12-29T14:44:16.336Z,101549.53
2022-12-29T14:46:55.325Z,101551.81
2022-12-29T14:49:24.343Z,101562.13
2022-12-29T14:51:52.863Z,101557.56
2022-12-29T14:54:34.813Z,101550.13
2022-12-29T14:57:03.128Z,101556.97
2022-12-29T14:59:31.079Z,101560.44
2022-12-29T15:01:58.133Z,101559.81
2022-12-29T15:04:36.252Z,101563.28
2022-12-29T15:07:08.175Z,101557.91
2022-12-29T15:09:38.195Z,101548.59
2022-12-29T15:12:11.070Z,101544.44
2022-12-29T15:14:49.596Z,101552.50
2022-12-29T15:17:25.038Z,101552.28
2022-12-29T15:19:51.781Z,101551.00
2022-12-29T15:22:18.493Z,101555.94
2022-12-29T15:24:45.282Z,101550.75
2022-12-29T15:27:15.439Z,101557.75
2022-12-29T15:29:43.367Z,101554.72
2022-12-29T15:32:28.830Z,101549.38
2022-12-29T15:34:56.795Z,101545.28
2022-12-29T15:37:27.705Z,101547.13
2022-12-29T15:39:55.308Z,101550.84
2022-12-29T15:42:32.956Z,101552.50
2022-12-29T15:45:10.335Z,101545.44
2022-12-29T15:47:38.587Z,101555.34
2022-12-29T15:50:21.308Z,101557.63
2022-12-29T15:52:48.731Z,101557.41
2022-12-29T15:55:27.540Z,101558.28
2022-12-29T15:57:56.904Z,101561.56
2022-12-29T16:00:31.583Z,101551.22
2022-12-29T16:02:59.797Z,101557.81
2022-12-29T16:05:32.429Z,101552.03
2022-12-29T16:08:00.076Z,101548.47
2022-12-29T16:10:31.401Z,101556.13
2022-12-29T16:13:05.705Z,101554.88
2022-12-29T16:15:32.836Z,101561.41
2022-12-29T16:17:59.591Z,101561.19
2022-12-29T16:20:32.724Z,101568.41
2022-12-29T16:23:00.542Z,101569.84
2022-12-29T16:25:32.556Z,101578.09
2022-12-29T16:28:02.580Z,101589.19
2022-12-29T16:30:34.377Z,101592.47
2022-12-29T16:33:02.687Z,101589.94
2022-12-29T16:35:44.347Z,101590.13
2022-12-29T16:38:18.367Z,101591.97
2022-12-29T16:40:52.585Z,101596.72
2022-12-29T16:43:23.714Z,101598.72
2022-12-29T16:45:53.366Z,101587.97
2022-12-29T16:48:19.939Z,101598.72
2022-12-29T16:50:47.616Z,101595.00
2022-12-29T16:53:21.566Z,101584.25
2022-12-29T16:55:50.730Z,101589.81
2022-12-29T16:58:19.442Z,101588.19
2022-12-29T17:00:47.098Z,101596.59
2022-12-29T17:03:14.526Z,101605.84
2022-12-29T17:05:41.248Z,101611.41
2022-12-29T17:08:23.741Z,101613.47
2022-12-29T17:11:14.077Z,101607.25
2022-12-29T17:13:41.076Z,101615.72
2022-12-29T17:16:08.536Z,101614.06
2022-12-29T17:18:35.530Z,101617.75
2022-12-29T17:21:02.264Z,101614.44
2022-12-29T17:23:30.856Z,101618.16
2022-12-29T17:25:57.696Z,101624.53
2022-12-29T17:28:28.571Z,101623.88
2022-12-29T17:30:56.778Z,101623.25
2022-12-29T17:33:23.508Z,101619.50
2022-12-29T17:35:55.142Z,101622.41
2022-12-29T17:38:25.953Z,101621.78
2022-12-29T17:40:52.642Z,101620.13
2022-12-29T17:43:20.108Z,101631.50
2022-12-29T17:45:52.886Z,101630.44
2022-12-29T17:48:19.681Z,101636.00
2022-12-29T17:50:47.704Z,101633.34
2022-12-29T17:53:15.846Z,101641.38
2022-12-29T17:55:42.677Z,101641.13
2022-12-29T17:58:17.731Z,101638.63
2022-12-29T18:00:44.911Z,101640.69
2022-12-29T18:03:19.094Z,101645.22
2022-12-29T18:05:45.995Z,101648.91
2022-12-29T18:08:12.670Z,101642.53
2022-12-29T18:10:40.032Z,101644.38
2022-12-29T18:13:07.216Z,101647.63
2022-12-29T18:15:35.374Z,101652.53
2022-12-29T18:18:15.239Z,101643.09
2022-12-29T18:20:43.218Z,101638.59
2022-12-29T18:23:19.637Z,101635.06
2022-12-29T18:25:49.500Z,101638.50
2022-12-29T18:28:16.136Z,101639.97
2022-12-29T18:30:42.860Z,101643.47
2022-12-29T18:33:21.046Z,101644.69
2022-12-29T18:35:59.484Z,101645.66
2022-12-29T18:38:26.261Z,101646.09
2022-12-29T18:40:53.426Z,101654.13
2022-12-29T18:43:20.274Z,101664.03
2022-12-29T18:45:47.131Z,101660.06
2022-12-29T18:48:14.407Z,101667.25
2022-12-29T18:50:41.182Z,101668.31
2022-12-29T18:53:15.132Z,101663.66
2022-12-29T18:55:41.708Z,101667.72
2022-12-29T18:58:08.351Z,101666.72
2022-12-29T19:00:34.987Z,101668.09
2022-12-29T19:03:01.653Z,101660.25
2022-12-29T19:05:29.723Z,101662.75
2022-12-29T19:07:56.357Z,101662.28
2022-12-29T19:10:24.435Z,101666.44
2022-12-29T19:12:51.715Z,101670.59
2022-12-29T19:15:23.998Z,101667.75
2022-12-29T19:18:16.239Z,101662.84
2022-12-29T19:20:42.067Z,101659.34
2022-12-29T19:23:12.948Z,101663.50
2022-12-29T19:25:40.074Z,101666.34
2022-12-29T19:28:07.627Z,101659.97
2022-12-29T19:30:35.401Z,101663.50
2022-12-29T19:33:09.619Z,101656.47
2022-12-29T19:35:36.901Z,101663.22
2022-12-29T19:38:03.463Z,101661.94
2022-12-29T19:40:30.165Z,101669.97
2022-12-29T19:42:57.203Z,101681.50
2022-12-29T19:45:23.897Z,101684.38
2022-12-29T19:47:50.546Z,101690.75
2022-12-29T19:50:17.544Z,101688.25
2022-12-29T19:52:44.546Z,101684.94
2022-12-29T19:55:13.817Z,101684.03
2022-12-29T19:57:40.384Z,101692.16
2022-12-29T20:00:07.381Z,101697.16
2022-12-29T20:02:38.876Z,101697.34
2022-12-29T20:05:05.765Z,101699.00
2022-12-29T20:07:32.655Z,101699.81
2022-12-29T20:09:59.297Z,101692.34
2022-12-29T20:12:29.291Z,101691.31
2022-12-29T20:14:56.758Z,101695.84
2022-12-29T20:17:45.664Z,101689.00
2022-12-29T20:20:10.187Z,101692.88
2022-12-29T20:22:37.019Z,101690.19
2022-12-29T20:25:43.053Z,101687.25
2022-12-29T20:27:50.718Z,101685.66
2022-12-29T20:30:17.972Z,101684.84
2022-12-29T20:32:44.594Z,101681.19
2022-12-29T20:35:12.031Z,101684.84
2022-12-29T20:37:38.591Z,101678.25
2022-12-29T20:40:05.415Z,101690.63
2022-12-29T20:42:32.043Z,101687.03
2022-12-29T20:44:58.606Z,101686.28
2022-12-29T20:47:25.188Z,101693.28
2022-12-29T20:49:51.722Z,101689.34
2022-12-29T20:52:19.292Z,101692.69
2022-12-29T20:54:45.820Z,101685.66
2022-12-29T20:57:12.481Z,101688.44
2022-12-29T20:59:39.026Z,101692.13
2022-12-29T21:02:06.616Z,101694.69
2022-12-29T21:04:57.623Z,101693.00
2022-12-29T21:07:20.557Z,101704.56
2022-12-29T21:09:47.323Z,101699.09
2022-12-29T21:12:14.910Z,101712.50
2022-12-29T21:14:45.598Z,101708.16
2022-12-29T21:17:12.825Z,101723.69
2022-12-29T21:19:39.514Z,101709.44
2022-12-29T21:22:06.155Z,101703.28
2022-12-29T21:24:32.873Z,101720.16
2022-12-29T21:26:59.437Z,101714.81
2022-12-29T21:29:29.680Z,101718.34
2022-12-29T21:31:57.748Z,101719.44
2022-12-29T21:34:27.630Z,101720.47
2022-12-29T21:36:54.240Z,101720.22
2022-12-29T21:39:20.882Z,101722.19
2022-12-29T21:41:47.589Z,101727.91
2022-12-29T21:44:32.873Z,101722.50
2022-12-29T21:46:59.545Z,101728.13
2022-12-29T21:49:27.883Z,101729.19
2022-12-29T21:51:54.963Z,101726.72
2022-12-29T21:54:42.118Z,101723.19
2022-12-29T21:57:09.636Z,101724.72
2022-12-29T21:59:54.854Z,101727.72
2022-12-29T22:02:45.070Z,101724.53
2022-12-29T22:05:31.878Z,101732.69
2022-12-29T22:08:17.644Z,101727.00
2022-12-29T22:11:04.028Z,101727.53
2022-12-29T22:13:31.961Z,101727.53
2022-12-29T22:15:58.550Z,101721.66
2022-12-29T22:18:25.196Z,101732.22
2022-12-29T22:20:51.810Z,101724.47
2022-12-29T22:23:18.413Z,101734.97
2022-12-29T22:25:46.583Z,101750.53
2022-12-29T22:28:13.230Z,101740.44
2022-12-29T22:30:39.858Z,101730.59
2022-12-29T22:33:07.430Z,101731.97
2022-12-29T22:35:33.980Z,101743.81
2022-12-29T22:38:00.603Z,101738.78
2022-12-29T22:40:27.361Z,101739.50
2022-12-29T22:42:53.999Z,101743.81
2022-12-29T22:45:20.575Z,101737.66
2022-12-29T22:47:47.216Z,101736.28
2022-12-29T22:50:13.839Z,101737.84
2022-12-29T22:52:40.438Z,101741.09
2022-12-29T22:55:08.498Z,101747.09
2022-12-29T22:57:35.538Z,101739.91
2022-12-29T23:00:02.552Z,101750.50
2022-12-29T23:02:30.471Z,101748.13
2022-12-29T23:05:05.317Z,101752.59
2022-12-29T23:07:33.781Z,101749.75
2022-12-29T23:10:00.363Z,101745.78
2022-12-29T23:12:29.440Z,101748.44
2022-12-29T23:14:56.050Z,101730.72
2022-12-29T23:17:22.858Z,101741.06
2022-12-29T23:19:49.487Z,101736.03
2022-12-29T23:22:16.117Z,101737.19
2022-12-29T23:24:42.770Z,101740.34
2022-12-29T23:27:09.372Z,101733.16
2022-12-29T23:29:36.025Z,101733.97
2022-12-29T23:32:02.637Z,101725.75
2022-12-29T23:34:29.248Z,101730.94
2022-12-29T23:36:55.804Z,101731.31
2022-12-29T23:39:25.997Z,101721.59
2022-12-29T23:41:52.734Z,101724.75
2022-12-29T23:44:19.393Z,101724.81
2022-12-29T23:46:46.107Z,101735.91
2022-12-29T23:49:12.767Z,101733.69
2022-12-29T23:51:39.444Z,101723.53
2022-12-29T23:54:06.067Z,101723.00
2022-12-29T23:56:33.148Z,101725.19
2022-12-29T23:58:59.729Z,101730.22
